createdAt,value
2022-11-08T00:00:57.488Z,9.53
2022-11-08T00:03:25.272Z,9.52
2022-11-08T00:06:13.763Z,9.46
2022-11-08T00:09:00.002Z,9.41
2022-11-08T00:11:45.920Z,9.43
2022-11-08T00:14:13.975Z,9.46
2022-11-08T00:16:41.580Z,9.44
2022-11-08T00:19:09.244Z,9.42
2022-11-08T00:21:36.732Z,9.35
2022-11-08T00:24:04.517Z,9.30
2022-11-08T00:26:32.124Z,9.32
2022-11-08T00:29:00.216Z,9.33
2022-11-08T00:31:28.195Z,9.30
2022-11-08T00:33:55.757Z,9.29
2022-11-08T00:36:23.518Z,9.34
2022-11-08T00:38:51.149Z,9.32
2022-11-08T00:41:18.669Z,9.33
2022-11-08T00:43:46.315Z,9.32
2022-11-08T00:46:14.202Z,9.28
2022-11-08T00:48:42.311Z,9.27
2022-11-08T00:51:12.665Z,9.21
2022-11-08T00:53:40.854Z,9.21
2022-11-08T00:56:12.055Z,9.32
2022-11-08T00:58:41.774Z,9.31
2022-11-08T01:01:15.945Z,9.42
2022-11-08T01:03:44.931Z,9.40
2022-11-08T01:06:14.695Z,9.38
2022-11-08T01:08:43.938Z,9.43
2022-11-08T01:11:15.349Z,9.49
2022-11-08T01:13:44.180Z,9.51
2022-11-08T01:16:14.992Z,9.46
2022-11-08T01:18:43.501Z,9.50
2022-11-08T01:21:12.047Z,9.52
2022-11-08T01:23:41.251Z,9.50
2022-11-08T01:26:17.120Z,9.35
2022-11-08T01:28:45.050Z,9.34
2022-11-08T01:31:15.920Z,9.33
2022-11-08T01:33:48.548Z,9.26
2022-11-08T01:36:22.533Z,9.21
2022-11-08T01:38:51.405Z,9.15
2022-11-08T01:41:21.107Z,9.19
2022-11-08T01:43:51.032Z,9.31
2022-11-08T01:46:19.051Z,9.34
2022-11-08T01:49:13.326Z,9.36
2022-11-08T01:51:47.944Z,9.33
2022-11-08T01:54:18.177Z,9.31
2022-11-08T01:56:45.868Z,9.20
2022-11-08T01:59:16.862Z,9.09
2022-11-08T02:01:45.249Z,9.02
2022-11-08T02:04:14.563Z,9.03
2022-11-08T02:06:44.814Z,9.09
2022-11-08T02:09:16.269Z,9.08
2022-11-08T02:11:44.736Z,9.11
2022-11-08T02:14:12.461Z,9.17
2022-11-08T02:16:40.391Z,9.11
2022-11-08T02:19:11.025Z,9.15
2022-11-08T02:21:56.165Z,9.03
2022-11-08T02:24:24.459Z,8.99
2022-11-08T02:26:55.005Z,8.89
2022-11-08T02:29:31.680Z,8.93
2022-11-08T02:32:01.087Z,8.94
2022-11-08T02:34:49.263Z,8.80
2022-11-08T02:37:20.668Z,8.86
2022-11-08T02:39:48.783Z,8.78
2022-11-08T02:42:21.632Z,8.81
2022-11-08T02:44:49.283Z,8.76
2022-11-08T02:47:17.046Z,8.74
2022-11-08T02:49:44.999Z,8.67
2022-11-08T02:52:13.223Z,8.71
2022-11-08T02:54:40.797Z,8.67
2022-11-08T02:57:08.645Z,8.71
2022-11-08T02:59:36.118Z,8.69
2022-11-08T03:02:04.649Z,8.67
2022-11-08T03:04:33.843Z,8.71
2022-11-08T03:07:01.511Z,8.76
2022-11-08T03:09:29.648Z,8.84
2022-11-08T03:11:57.799Z,8.85
2022-11-08T03:14:25.238Z,8.91
2022-11-08T03:16:53.124Z,8.92
2022-11-08T03:19:21.089Z,8.87
2022-11-08T03:21:49.170Z,8.73
2022-11-08T03:24:16.719Z,8.72
2022-11-08T03:26:44.705Z,8.64
2022-11-08T03:29:12.320Z,8.62
2022-11-08T03:31:39.770Z,8.59
2022-11-08T03:34:10.284Z,8.53
2022-11-08T03:36:38.015Z,8.62
2022-11-08T03:39:05.700Z,8.63
2022-11-08T03:41:33.352Z,8.30
2022-11-08T03:44:00.992Z,8.04
2022-11-08T03:46:29.109Z,7.79
2022-11-08T03:48:56.723Z,7.81
2022-11-08T03:51:24.404Z,7.72
2022-11-08T03:53:51.926Z,7.70
2022-11-08T03:56:19.947Z,7.64
2022-11-08T03:58:47.875Z,7.70
2022-11-08T04:01:15.965Z,7.69
2022-11-08T04:03:43.499Z,7.55
2022-11-08T04:06:11.130Z,7.42
2022-11-08T04:08:39.206Z,7.53
2022-11-08T04:11:25.424Z,7.42
2022-11-08T04:14:11.884Z,7.47
2022-11-08T04:16:39.599Z,7.54
2022-11-08T04:19:25.911Z,7.59
2022-11-08T04:21:54.815Z,7.57
2022-11-08T04:24:23.090Z,7.61
2022-11-08T04:26:50.706Z,7.70
2022-11-08T04:29:18.752Z,7.73
2022-11-08T04:31:46.377Z,7.84
2022-11-08T04:34:14.356Z,7.91
2022-11-08T04:36:41.879Z,7.88
2022-11-08T04:39:09.493Z,7.92
2022-11-08T04:41:37.211Z,7.88
2022-11-08T04:44:05.254Z,7.93
2022-11-08T04:46:33.129Z,7.92
2022-11-08T04:49:01.221Z,7.99
2022-11-08T04:51:33.474Z,7.94
2022-11-08T04:54:03.222Z,8.00
2022-11-08T04:56:32.300Z,7.99
2022-11-08T04:59:00.847Z,8.05
2022-11-08T05:01:30.348Z,8.01
2022-11-08T05:03:58.522Z,8.02
2022-11-08T05:06:30.896Z,8.06
2022-11-08T05:08:59.604Z,8.07
2022-11-08T05:11:29.406Z,8.14
2022-11-08T05:13:57.893Z,8.10
2022-11-08T05:16:30.766Z,8.07
2022-11-08T05:19:00.068Z,7.98
2022-11-08T05:21:46.783Z,7.96
2022-11-08T05:24:17.083Z,7.91
2022-11-08T05:26:47.226Z,7.86
2022-11-08T05:29:16.840Z,7.93
2022-11-08T05:31:45.261Z,7.93
2022-11-08T05:34:13.094Z,8.08
2022-11-08T05:36:40.735Z,8.05
2022-11-08T05:39:09.093Z,8.03
2022-11-08T05:41:37.037Z,7.99
2022-11-08T05:44:04.761Z,8.00
2022-11-08T05:46:32.306Z,7.96
2022-11-08T05:49:00.363Z,7.96
2022-11-08T05:51:27.875Z,7.99
2022-11-08T05:53:55.373Z,7.92
2022-11-08T05:56:23.086Z,8.04
2022-11-08T05:58:50.580Z,8.09
2022-11-08T06:01:20.549Z,8.18
2022-11-08T06:03:48.853Z,8.10
2022-11-08T06:06:19.590Z,8.11
2022-11-08T06:08:50.710Z,8.11
2022-11-08T06:11:25.440Z,8.15
2022-11-08T06:13:55.865Z,8.11
2022-11-08T06:16:24.340Z,8.15
2022-11-08T06:18:53.016Z,8.30
2022-11-08T06:21:21.564Z,8.40
2022-11-08T06:23:53.881Z,8.39
2022-11-08T06:26:23.376Z,8.43
2022-11-08T06:28:51.587Z,8.43
2022-11-08T06:31:19.160Z,8.43
2022-11-08T06:33:46.848Z,8.53
2022-11-08T06:36:14.800Z,8.84
2022-11-08T06:38:42.768Z,9.03
2022-11-08T06:41:18.228Z,9.27
2022-11-08T06:43:45.735Z,9.42
2022-11-08T06:46:13.382Z,9.42
2022-11-08T06:48:41.690Z,9.49
2022-11-08T06:51:09.279Z,9.68
2022-11-08T06:53:37.186Z,9.69
2022-11-08T06:56:05.309Z,9.56
2022-11-08T06:58:32.917Z,9.88
2022-11-08T07:01:08.068Z,10.10
2022-11-08T07:03:35.977Z,9.93
2022-11-08T07:06:05.720Z,10.16
2022-11-08T07:08:34.157Z,10.08
2022-11-08T07:11:03.014Z,10.19
2022-11-08T07:13:31.317Z,10.24
2022-11-08T07:16:00.696Z,10.24
2022-11-08T07:18:28.987Z,10.28
2022-11-08T07:21:02.146Z,10.18
2022-11-08T07:23:30.131Z,9.99
2022-11-08T07:26:01.936Z,9.92
2022-11-08T07:28:30.181Z,10.02
2022-11-08T07:31:03.442Z,10.15
2022-11-08T07:33:32.235Z,10.41
2022-11-08T07:35:59.883Z,10.53
2022-11-08T07:38:27.572Z,10.74
2022-11-08T07:41:00.016Z,10.84
2022-11-08T07:43:28.904Z,11.10
2022-11-08T07:46:02.169Z,11.18
2022-11-08T07:48:31.084Z,11.38
2022-11-08T07:50:58.821Z,11.64
2022-11-08T07:53:26.428Z,11.91
2022-11-08T07:55:55.173Z,11.97
2022-11-08T07:58:22.812Z,12.15
2022-11-08T08:00:50.573Z,12.14
2022-11-08T08:03:19.215Z,12.28
2022-11-08T08:05:56.580Z,12.29
2022-11-08T08:08:27.656Z,12.02
2022-11-08T08:11:02.204Z,12.26
2022-11-08T08:13:30.378Z,12.41
2022-11-08T08:16:00.643Z,12.55
2022-11-08T08:18:29.405Z,12.86
2022-11-08T08:20:57.652Z,12.91
2022-11-08T08:23:25.265Z,13.05
2022-11-08T08:25:53.014Z,12.73
2022-11-08T08:28:20.709Z,12.87
2022-11-08T08:30:48.211Z,13.27
2022-11-08T08:33:32.719Z,13.32
2022-11-08T08:36:04.043Z,13.48
2022-11-08T08:38:33.161Z,13.62
2022-11-08T08:41:02.489Z,13.61
2022-11-08T08:43:32.655Z,13.54
2022-11-08T08:46:02.250Z,13.37
2022-11-08T08:48:30.359Z,13.85
2022-11-08T08:50:58.984Z,13.82
2022-11-08T08:53:26.981Z,13.70
2022-11-08T08:55:54.627Z,13.79
2022-11-08T08:58:22.187Z,13.81
2022-11-08T09:03:37.558Z,14.12
2022-11-08T09:06:05.168Z,14.21
2022-11-08T09:08:32.755Z,14.30
2022-11-08T09:11:01.840Z,14.32
2022-11-08T09:13:33.249Z,14.44
2022-11-08T09:16:02.742Z,13.94
2022-11-08T09:18:31.366Z,14.14
2022-11-08T09:21:00.436Z,14.42
2022-11-08T09:23:28.013Z,14.37
2022-11-08T09:25:59.926Z,14.18
2022-11-08T09:28:31.310Z,14.31
2022-11-08T09:31:04.558Z,14.40
2022-11-08T09:33:32.674Z,14.42
2022-11-08T09:36:02.508Z,14.43
2022-11-08T09:38:30.895Z,14.42
2022-11-08T09:41:07.997Z,14.70
2022-11-08T09:44:31.945Z,14.84
2022-11-08T09:47:10.555Z,15.19
2022-11-08T09:49:43.099Z,16.03
2022-11-08T09:52:16.905Z,16.74
2022-11-08T09:54:47.130Z,17.28
2022-11-08T09:57:35.794Z,16.39
2022-11-08T10:00:06.972Z,16.46
2022-11-08T10:02:36.803Z,15.61
2022-11-08T10:05:09.564Z,15.42
2022-11-08T10:07:51.524Z,15.66
2022-11-08T10:10:48.532Z,15.54
2022-11-08T10:13:38.234Z,15.42
2022-11-08T10:16:21.396Z,16.02
2022-11-08T10:19:23.314Z,17.09
2022-11-08T10:22:04.848Z,17.71
2022-11-08T10:24:35.822Z,18.64
2022-11-08T10:27:10.284Z,19.11
2022-11-08T10:29:43.840Z,19.22
2022-11-08T10:32:18.922Z,19.06
2022-11-08T10:35:16.551Z,18.18
2022-11-08T10:37:45.102Z,18.02
2022-11-08T10:40:12.783Z,18.20
2022-11-08T10:42:53.575Z,18.85
2022-11-08T10:45:21.877Z,19.10
2022-11-08T10:47:50.127Z,19.37
2022-11-08T10:50:20.759Z,19.19
2022-11-08T10:53:00.204Z,19.86
2022-11-08T10:55:36.915Z,19.88
2022-11-08T10:58:24.990Z,19.29
2022-11-08T11:01:17.219Z,18.75
2022-11-08T11:03:46.913Z,17.76
2022-11-08T11:06:32.835Z,17.54
2022-11-08T11:09:04.803Z,18.54
2022-11-08T11:11:32.343Z,19.93
2022-11-08T11:14:18.419Z,19.89
2022-11-08T11:16:53.405Z,20.02
2022-11-08T11:19:21.521Z,19.92
2022-11-08T11:21:58.178Z,18.83
2022-11-08T11:24:26.081Z,18.98
2022-11-08T11:26:56.719Z,19.39
2022-11-08T11:29:28.970Z,18.75
2022-11-08T11:31:58.102Z,19.08
2022-11-08T11:34:49.240Z,19.92
2022-11-08T11:37:22.675Z,20.27
2022-11-08T11:40:03.956Z,21.44
2022-11-08T11:42:47.625Z,22.11
2022-11-08T11:45:20.356Z,21.69
2022-11-08T11:47:54.590Z,19.63
2022-11-08T11:50:36.125Z,20.00
2022-11-08T11:53:07.278Z,21.05
2022-11-08T11:55:57.003Z,21.15
2022-11-08T11:59:05.014Z,20.57
2022-11-08T12:02:10.627Z,19.66
2022-11-08T12:05:03.049Z,21.72
2022-11-08T12:07:33.194Z,21.08
2022-11-08T12:10:15.105Z,21.89
2022-11-08T12:12:42.738Z,22.31
2022-11-08T12:15:34.673Z,21.89
2022-11-08T12:18:43.528Z,22.66
2022-11-08T12:21:35.698Z,23.06
2022-11-08T12:24:09.886Z,24.31
2022-11-08T12:27:01.685Z,24.32
2022-11-08T12:29:48.072Z,23.06
2022-11-08T12:32:31.922Z,23.20
2022-11-08T12:35:05.450Z,23.49
2022-11-08T12:37:39.033Z,24.64
2022-11-08T12:40:21.311Z,23.52
2022-11-08T12:42:57.828Z,21.09
2022-11-08T12:45:31.581Z,20.85
2022-11-08T12:48:20.532Z,21.22
2022-11-08T12:51:07.218Z,22.22
2022-11-08T12:54:04.058Z,22.13
2022-11-08T12:56:42.946Z,23.34
2022-11-08T12:59:26.048Z,24.12
2022-11-08T13:01:55.823Z,22.60
2022-11-08T13:04:56.251Z,24.29
2022-11-08T13:07:26.848Z,24.84
2022-11-08T13:10:00.667Z,25.28
2022-11-08T13:12:37.973Z,25.63
2022-11-08T13:15:16.550Z,25.09
2022-11-08T13:18:24.383Z,23.37
2022-11-08T13:20:52.021Z,23.87
2022-11-08T13:23:29.781Z,23.85
2022-11-08T13:26:21.956Z,22.35
2022-11-08T13:28:50.826Z,21.86
2022-11-08T13:31:31.325Z,21.23
2022-11-08T13:34:20.426Z,20.74
2022-11-08T13:36:57.560Z,19.79
2022-11-08T13:39:49.998Z,19.53
2022-11-08T13:42:18.824Z,19.25
2022-11-08T13:44:55.434Z,19.16
2022-11-08T13:47:43.584Z,18.70
2022-11-08T13:50:30.532Z,18.64
2022-11-08T13:53:44.084Z,18.76
2022-11-08T13:56:13.099Z,18.75
2022-11-08T13:58:44.379Z,18.83
2022-11-08T14:01:18.591Z,19.69
2022-11-08T14:03:46.593Z,19.48
2022-11-08T14:06:20.040Z,19.87
2022-11-08T14:08:54.128Z,20.43
2022-11-08T14:11:27.979Z,21.12
2022-11-08T14:14:24.747Z,23.65
2022-11-08T14:17:30.018Z,22.90
2022-11-08T14:20:22.831Z,22.18
2022-11-08T14:22:51.592Z,22.66
2022-11-08T14:25:29.127Z,21.95
2022-11-08T14:27:56.847Z,22.07
2022-11-08T14:30:24.940Z,21.68
2022-11-08T14:33:14.162Z,21.92
2022-11-08T14:35:41.868Z,21.39
2022-11-08T14:38:15.619Z,20.89
2022-11-08T14:41:04.742Z,20.47
2022-11-08T14:43:42.620Z,20.09
2022-11-08T14:46:16.486Z,20.16
2022-11-08T14:48:54.212Z,20.16
2022-11-08T14:51:21.892Z,19.76
2022-11-08T14:53:55.448Z,19.73
2022-11-08T14:56:25.798Z,19.71
2022-11-08T14:58:55.662Z,19.45
2022-11-08T15:01:26.169Z,19.37
2022-11-08T15:03:56.047Z,18.76
2022-11-08T15:06:35.083Z,18.59
2022-11-08T15:09:05.141Z,18.50
2022-11-08T15:11:40.135Z,18.26
2022-11-08T15:14:11.660Z,18.05
2022-11-08T15:16:45.200Z,18.00
2022-11-08T15:19:32.135Z,18.06
2022-11-08T15:22:02.716Z,17.83
2022-11-08T15:24:35.811Z,17.59
2022-11-08T15:27:08.314Z,17.33
2022-11-08T15:30:09.453Z,17.23
2022-11-08T15:32:40.254Z,17.13
2022-11-08T15:35:39.302Z,16.71
2022-11-08T15:38:21.105Z,16.53
2022-11-08T15:40:55.823Z,16.50
2022-11-08T15:43:32.713Z,16.30
2022-11-08T15:46:02.332Z,16.12
2022-11-08T15:48:30.452Z,16.11
2022-11-08T15:50:58.231Z,16.05
2022-11-08T15:53:27.432Z,15.79
2022-11-08T15:56:02.301Z,15.59
2022-11-08T15:58:39.933Z,15.48
2022-11-08T16:01:17.637Z,15.42
2022-11-08T16:03:46.712Z,15.30
2022-11-08T16:06:15.009Z,15.25
2022-11-08T16:08:42.554Z,15.18
2022-11-08T16:11:17.615Z,15.02
2022-11-08T16:13:45.809Z,14.96
2022-11-08T16:16:14.656Z,14.83
2022-11-08T16:18:43.020Z,14.90
2022-11-08T16:21:12.304Z,14.84
2022-11-08T16:23:40.717Z,14.77
2022-11-08T16:26:15.865Z,14.80
2022-11-08T16:28:44.194Z,14.75
2022-11-08T16:31:14.409Z,14.69
2022-11-08T16:33:44.138Z,14.71
2022-11-08T16:36:19.955Z,14.65
2022-11-08T16:38:53.606Z,14.64
2022-11-08T16:41:22.313Z,14.62
2022-11-08T16:43:49.899Z,14.56
2022-11-08T16:46:19.951Z,14.41
2022-11-08T16:48:58.993Z,14.27
2022-11-08T16:51:26.811Z,14.29
2022-11-08T16:53:54.482Z,14.29
2022-11-08T16:56:22.392Z,14.13
2022-11-08T16:58:50.522Z,14.04
2022-11-08T17:01:23.381Z,13.99
2022-11-08T17:03:51.392Z,13.87
2022-11-08T17:06:19.115Z,13.96
2022-11-08T17:08:47.548Z,13.95
2022-11-08T17:11:21.295Z,13.98
2022-11-08T17:13:50.174Z,13.98
2022-11-08T17:16:18.861Z,14.05
2022-11-08T17:18:52.200Z,14.02
2022-11-08T17:21:43.711Z,13.96
2022-11-08T17:24:08.832Z,13.89
2022-11-08T17:26:36.480Z,13.97
2022-11-08T17:29:06.554Z,13.91
2022-11-08T17:31:34.152Z,13.93
2022-11-08T17:34:01.740Z,13.98
2022-11-08T17:36:29.744Z,13.89
2022-11-08T17:38:58.260Z,13.82
2022-11-08T17:41:25.878Z,13.81
2022-11-08T17:43:53.801Z,13.84
2022-11-08T17:46:21.563Z,13.78
2022-11-08T17:48:49.112Z,13.72
2022-11-08T17:51:17.737Z,13.62
2022-11-08T17:53:45.752Z,13.70
2022-11-08T17:56:13.308Z,13.70
2022-11-08T17:58:41.258Z,13.74
2022-11-08T18:01:09.060Z,13.87
2022-11-08T18:03:37.125Z,13.99
2022-11-08T18:06:07.754Z,13.94
2022-11-08T18:08:35.996Z,13.95
2022-11-08T18:11:04.582Z,14.00
2022-11-08T18:13:32.652Z,13.95
2022-11-08T18:16:12.078Z,13.93
2022-11-08T18:18:40.977Z,13.99
2022-11-08T18:21:10.037Z,14.02
2022-11-08T18:23:40.984Z,14.07
2022-11-08T18:26:08.844Z,14.09
2022-11-08T18:28:37.601Z,13.96
2022-11-08T18:31:11.856Z,13.78
2022-11-08T18:33:40.615Z,13.65
2022-11-08T18:36:10.945Z,13.55
2022-11-08T18:38:40.510Z,13.57
2022-11-08T18:41:08.475Z,13.54
2022-11-08T18:43:36.643Z,13.35
2022-11-08T18:46:06.142Z,13.22
2022-11-08T18:48:35.705Z,13.32
2022-11-08T18:51:05.840Z,13.28
2022-11-08T18:53:34.784Z,13.18
2022-11-08T18:56:02.825Z,13.11
2022-11-08T18:58:30.592Z,13.16
2022-11-08T19:00:58.962Z,13.20
2022-11-08T19:03:28.217Z,13.13
2022-11-08T19:05:56.822Z,13.05
2022-11-08T19:08:27.212Z,13.02
2022-11-08T19:11:01.167Z,13.03
2022-11-08T19:13:31.280Z,13.12
2022-11-08T19:16:16.148Z,13.11
2022-11-08T19:18:45.250Z,13.19
2022-11-08T19:21:15.896Z,13.26
2022-11-08T19:23:45.941Z,13.31
2022-11-08T19:26:17.413Z,13.27
2022-11-08T19:28:46.262Z,13.26
2022-11-08T19:31:16.713Z,13.27
2022-11-08T19:33:44.875Z,13.26
2022-11-08T19:36:16.206Z,13.34
2022-11-08T19:38:44.112Z,13.48
2022-11-08T19:41:18.526Z,13.55
2022-11-08T19:43:47.232Z,13.50
2022-11-08T19:46:20.801Z,13.50
2022-11-08T19:48:50.267Z,13.49
2022-11-08T19:51:27.720Z,13.55
2022-11-08T19:54:01.117Z,13.54
2022-11-08T19:56:50.536Z,13.49
2022-11-08T19:59:18.270Z,13.57
2022-11-08T20:01:46.990Z,13.62
2022-11-08T20:04:15.363Z,13.66
2022-11-08T20:06:43.500Z,13.70
2022-11-08T20:09:12.142Z,13.83
2022-11-08T20:11:41.523Z,13.73
2022-11-08T20:14:12.562Z,13.71
2022-11-08T20:16:46.704Z,13.65
2022-11-08T20:19:18.110Z,13.63
2022-11-08T20:21:46.984Z,13.66
2022-11-08T20:24:15.722Z,13.63
2022-11-08T20:26:43.989Z,13.58
2022-11-08T20:29:12.233Z,13.62
2022-11-08T20:31:42.523Z,13.70
2022-11-08T20:34:12.904Z,13.68
2022-11-08T20:36:41.886Z,13.61
2022-11-08T20:39:16.058Z,13.59
2022-11-08T20:41:44.106Z,13.63
2022-11-08T20:44:12.703Z,13.61
2022-11-08T20:46:41.153Z,13.52
2022-11-08T20:49:09.196Z,13.57
2022-11-08T20:51:37.472Z,13.51
2022-11-08T20:54:05.297Z,13.52
2022-11-08T20:56:32.935Z,13.34
2022-11-08T20:59:01.754Z,13.29
2022-11-08T21:01:33.224Z,13.25
2022-11-08T21:04:01.260Z,13.21
2022-11-08T21:06:32.940Z,13.18
2022-11-08T21:09:19.609Z,13.17
2022-11-08T21:11:52.338Z,13.22
2022-11-08T21:14:22.702Z,13.14
2022-11-08T21:17:21.389Z,13.16
2022-11-08T21:19:39.399Z,13.17
2022-11-08T21:22:17.188Z,13.25
2022-11-08T21:24:47.707Z,13.24
2022-11-08T21:27:18.112Z,13.29
2022-11-08T21:29:46.166Z,13.24
2022-11-08T21:32:16.189Z,13.33
2022-11-08T21:34:46.530Z,13.30
2022-11-08T21:37:15.315Z,13.25
2022-11-08T21:39:43.060Z,13.25
2022-11-08T21:42:10.700Z,13.24
2022-11-08T21:44:38.317Z,13.24
2022-11-08T21:47:06.815Z,13.31
2022-11-08T21:49:34.375Z,13.26
2022-11-08T21:52:03.709Z,13.25
2022-11-08T21:54:31.355Z,13.19
2022-11-08T21:56:59.166Z,13.27
2022-11-08T21:59:27.416Z,13.20
2022-11-08T22:01:55.656Z,13.06
2022-11-08T22:04:23.273Z,12.98
2022-11-08T22:06:50.804Z,12.92
2022-11-08T22:09:18.851Z,12.93
2022-11-08T22:11:46.373Z,13.03
2022-11-08T22:14:16.896Z,13.07
2022-11-08T22:16:44.500Z,13.08
2022-11-08T22:19:13.111Z,13.14
2022-11-08T22:21:43.370Z,13.20
2022-11-08T22:24:13.859Z,13.07
2022-11-08T22:26:41.961Z,13.01
2022-11-08T22:29:10.563Z,13.18
2022-11-08T22:31:38.619Z,13.21
2022-11-08T22:34:10.825Z,13.15
2022-11-08T22:36:45.036Z,13.27
2022-11-08T22:39:15.356Z,13.34
2022-11-08T22:41:44.400Z,13.35
2022-11-08T22:44:13.320Z,13.33
2022-11-08T22:46:45.319Z,13.30
2022-11-08T22:49:13.963Z,13.31
2022-11-08T22:51:42.914Z,13.30
2022-11-08T22:54:11.551Z,13.25
2022-11-08T22:56:40.327Z,13.27
2022-11-08T22:59:08.736Z,13.25
2022-11-08T23:01:36.553Z,13.32
2022-11-08T23:04:04.252Z,13.40
2022-11-08T23:06:32.198Z,13.25
2022-11-08T23:09:00.360Z,13.24
2022-11-08T23:11:46.393Z,13.26
2022-11-08T23:14:37.140Z,13.20
2022-11-08T23:17:08.331Z,13.27
2022-11-08T23:19:54.552Z,13.26
2022-11-08T23:22:40.943Z,13.30
2022-11-08T23:25:09.278Z,13.36
2022-11-08T23:27:55.748Z,13.38
2022-11-08T23:30:41.862Z,13.45
2022-11-08T23:33:09.391Z,13.44
2022-11-08T23:35:37.052Z,13.48
2022-11-08T23:38:05.069Z,13.44
2022-11-08T23:40:51.601Z,13.40
2022-11-08T23:43:38.890Z,13.36
2022-11-08T23:46:12.627Z,13.27
2022-11-08T23:48:40.647Z,13.22
2022-11-08T23:51:08.706Z,13.32
2022-11-08T23:53:37.617Z,13.41
2022-11-08T23:56:06.697Z,13.35
2022-11-08T23:58:34.748Z,13.23
